Astro Chloe — SVAL7 — position and weather

sailwx.info

Track history (hours):
 
Tides and Currents Weather Stations Pressure Air Temp Water Temp Dewpoint Dewpoint Depression Visibility Wind Speed Wind Dir Waves Ship Positions

Astro Chloe

Last reported at 2017-Jun-16 18:52 UTC. Time now 2017-Jun-24 08:53 UTC.
Position N 02°00' E 102°12'.

Length 333 m; draft 11.1 m.

Type: Tanker. MMSI: 240839000.

Date/timePositionNaut miles runAvg speedWind from/ knotsBaromVisibWave heightAir tempDewpointWater temp
2017-Jun-16 18:52N 02°00' E 102°12'510.2
2017-Jun-16 18:26N 01°58' E 102°16'410.2
2017-Jun-16 18:00N 01°56' E 102°20'510.1
2017-Jun-16 17:29N 01°53' E 102°25'5 9.7
2017-Jun-16 17:00N 01°51' E 102°29'5 9.7
2017-Jun-16 16:29N 01°49' E 102°33'5 9.7
2017-Jun-16 16:00N 01°46' E 102°37'5 9.7
2017-Jun-16 15:29N 01°44' E 102°42'510.0
2017-Jun-16 14:59N 01°42' E 102°46'4210.9
2017-Jun-16 11:12N 01°18' E 103°20'210.5
2017-Jun-16 10:59N 01°16' E 103°22'510.2
2017-Jun-16 10:29N 01°14' E 103°26'5 9.9
2017-Jun-16 09:59N 01°13' E 103°31'510.3
2017-Jun-16 09:30N 01°12' E 103°36'4 9.0
2017-Jun-16 09:00N 01°11' E 103°40'3 6.7
2017-Jun-16 08:30N 01°09' E 103°43'5 9.4
2017-Jun-16 08:00N 01°10' E 103°48'511.0
2017-Jun-16 07:30N 01°13' E 103°53'510.3
2017-Jun-16 07:00N 01°15' E 103°57'3 4.3
2017-Jun-16 06:25N 01°17' E 103°56'0 0.0
2017-Jun-16 05:49N 01°17' E 103°56'0 0.1
2017-Jun-16 04:25N 01°17' E 103°56'0 0.1
2017-Jun-16 03:55N 01°17' E 103°56'0 0.0
2017-Jun-16 03:25N 01°17' E 103°56'0 0.1
2017-Jun-16 02:40N 01°17' E 103°56'0 0.3
2017-Jun-16 02:28N 01°17' E 103°56'0 0.1
2017-Jun-16 01:58N 01°17' E 103°56'0 0.1
2017-Jun-16 01:19N 01°17' E 103°56'0 0.2
2017-Jun-16 00:58N 01°17' E 103°56'0 0.0
2017-Jun-16 00:25N 01°17' E 103°56'0 0.0
2017-Jun-15 23:58N 01°17' E 103°56'0 0.0
2017-Jun-15 23:28N 01°17' E 103°56'0 0.0
2017-Jun-15 23:01N 01°17' E 103°56'0 0.1
2017-Jun-15 22:28N 01°17' E 103°56'0 0.0
2017-Jun-15 21:58N 01°17' E 103°56'0 0.0
2017-Jun-15 21:28N 01°17' E 103°56'0 0.0
2017-Jun-15 20:52N 01°17' E 103°56'0 0.0
2017-Jun-15 20:01N 01°17' E 103°56'0 0.1
2017-Jun-15 19:55N 01°17' E 103°56'0 0.0
2017-Jun-15 19:25N 01°17' E 103°56'0 0.1
2017-Jun-15 18:58N 01°17' E 103°56'0 0.4
2017-Jun-15 18:28N 01°17' E 103°56'0 0.0
2017-Jun-15 08:24N 01°17' E 103°56'0 0.0
2017-Jun-15 07:57N 01°17' E 103°56'0 0.0
2017-Jun-15 07:30N 01°17' E 103°56'0 0.0
2017-Jun-15 06:48N 01°17' E 103°56'0 0.0
2017-Jun-15 06:24N 01°17' E 103°56'0 0.0
2017-Jun-15 05:52N 01°17' E 103°56'0 0.0
2017-Jun-15 05:27N 01°17' E 103°56'0 0.0
2017-Jun-15 05:00N 01°17' E 103°56'0 0.0
2017-Jun-15 04:30N 01°17' E 103°56'0 0.2
2017-Jun-15 04:00N 01°17' E 103°56'0 0.4
2017-Jun-15 03:30N 01°17' E 103°56'1 2.2
2017-Jun-15 03:00N 01°16' E 103°57'2 4.1
2017-Jun-15 02:30N 01°16' E 103°59'2 3.7
2017-Jun-15 02:00N 01°16' E 104°01'4 7.4
2017-Jun-15 01:30N 01°16' E 104°04'4 7.9
2017-Jun-15 01:00N 01°17' E 104°08'8 8.2
2017-Jun-15 00:01N 01°18' E 104°16'0 8.4
2017-Jun-14 23:58N 01°18' E 104°17'  
2017-Jun-08 14:26N 22°15' E 120°04'1111.5
2017-Jun-08 13:31N 22°24' E 120°11'510.9
2017-Jun-08 13:01N 22°28' E 120°15'3 5.5
2017-Jun-08 12:30N 22°28' E 120°18'0 0.4
2017-Jun-08 12:00N 22°28' E 120°18'0 0.1
2017-Jun-08 11:30N 22°28' E 120°18'0 0.1
2017-Jun-08 11:00N 22°28' E 120°18'0 0.1
2017-Jun-08 10:30N 22°28' E 120°18'0 0.0
2017-Jun-08 09:57N 22°28' E 120°18'0 0.0
2017-Jun-08 09:30N 22°28' E 120°18'0 0.2
2017-Jun-08 09:00N 22°28' E 120°18'0 0.2
2017-Jun-08 08:27N 22°28' E 120°17'0 0.1
2017-Jun-08 07:57N 22°28' E 120°17'0 0.1
2017-Jun-08 07:24N 22°28' E 120°17'0 0.2
2017-Jun-08 07:00N 22°28' E 120°17'0 0.0
2017-Jun-08 06:30N 22°28' E 120°17'0 0.0
2017-Jun-08 06:00N 22°28' E 120°17'0 0.0
2017-Jun-08 05:30N 22°28' E 120°17'0 0.0
2017-Jun-08 05:00N 22°28' E 120°17'0 0.0
2017-Jun-08 04:30N 22°28' E 120°17'0 0.1
2017-Jun-08 03:57N 22°28' E 120°17'0 0.0
2017-Jun-08 03:30N 22°28' E 120°17'0 0.0
2017-Jun-08 03:00N 22°28' E 120°17'0 0.0
2017-Jun-08 02:30N 22°28' E 120°17'0 0.0
2017-Jun-08 02:00N 22°28' E 120°17'0 0.0
2017-Jun-08 01:27N 22°28' E 120°17'0 0.1
2017-Jun-08 00:54N 22°28' E 120°17'0 0.1
2017-Jun-08 00:30N 22°28' E 120°17'0 0.1
2017-Jun-07 23:57N 22°28' E 120°17'0 0.2
2017-Jun-07 23:30N 22°28' E 120°17'0 0.1
2017-Jun-07 23:00N 22°28' E 120°18'0 0.0
2017-Jun-07 22:30N 22°28' E 120°18'0 0.1
2017-Jun-07 22:00N 22°28' E 120°18'0 0.0
2017-Jun-07 21:27N 22°28' E 120°18'0 0.3
2017-Jun-07 21:00N 22°28' E 120°18'0 0.2
2017-Jun-07 20:27N 22°28' E 120°17'0 0.1
2017-Jun-07 20:00N 22°28' E 120°17'0 0.1
2017-Jun-07 19:30N 22°28' E 120°17'0 0.1
2017-Jun-07 19:00N 22°28' E 120°17'0 0.1
2017-Jun-07 18:30N 22°28' E 120°17'0 0.0
2017-Jun-07 18:00N 22°28' E 120°17'0 0.1
2017-Jun-07 17:24N 22°28' E 120°17'0 0.2
2017-Jun-07 17:00N 22°28' E 120°18'0 0.2
2017-Jun-07 16:30N 22°28' E 120°18'0 0.1
2017-Jun-07 16:00N 22°28' E 120°18'0 0.2
2017-Jun-07 15:30N 22°28' E 120°18'0 0.1
2017-Jun-07 15:00N 22°28' E 120°18'0 0.0
2017-Jun-07 14:00N 22°28' E 120°18'0 0.1
2017-Jun-07 12:09N 22°28' E 120°18'0 0.1
2017-Jun-07 11:57N 22°28' E 120°18'0 0.0
2017-Jun-07 11:27N 22°28' E 120°18'0 0.0
2017-Jun-07 11:00N 22°28' E 120°18'0 0.0
2017-Jun-07 10:30N 22°28' E 120°18'0 0.1
2017-Jun-07 10:00N 22°28' E 120°18'0 0.0
2017-Jun-07 09:30N 22°28' E 120°18'0 0.1
2017-Jun-07 09:00N 22°28' E 120°18'0 0.0
2017-Jun-07 08:30N 22°28' E 120°18'0 0.2
2017-Jun-07 08:00N 22°28' E 120°18'0 0.2
2017-Jun-07 07:30N 22°28' E 120°18'0 0.2
2017-Jun-07 07:00N 22°28' E 120°17'0 0.1
2017-Jun-07 06:24N 22°28' E 120°17'0 0.1
2017-Jun-07 06:00N 22°28' E 120°17'0 0.0
2017-Jun-07 05:30N 22°28' E 120°17'0 0.0
2017-Jun-07 05:00N 22°28' E 120°17'0 0.1
2017-Jun-07 04:24N 22°28' E 120°17'0 0.0
2017-Jun-07 04:00N 22°28' E 120°17'0 0.0
2017-Jun-07 03:30N 22°28' E 120°17'0 0.0
2017-Jun-07 03:00N 22°28' E 120°17'0 0.0
2017-Jun-07 02:30N 22°28' E 120°17'0 0.0
2017-Jun-07 02:00N 22°28' E 120°17'0 0.1
2017-Jun-07 01:30N 22°28' E 120°17'0 0.0
2017-Jun-07 00:57N 22°28' E 120°17'0 0.0
2017-Jun-07 00:30N 22°28' E 120°17'0 0.3
2017-Jun-06 23:48N 22°28' E 120°18'0 0.3
2017-Jun-06 23:27N 22°28' E 120°18'0 0.1
2017-Jun-06 22:54N 22°28' E 120°18'0 0.0
2017-Jun-06 22:30N 22°28' E 120°18'0 0.0
2017-Jun-06 22:00N 22°28' E 120°18'0 0.1
2017-Jun-06 21:30N 22°28' E 120°18'0 0.0
2017-Jun-06 20:54N 22°28' E 120°18'0 0.0
2017-Jun-06 20:30N 22°28' E 120°18'0 0.0
2017-Jun-06 20:00N 22°28' E 120°18'0 0.0
2017-Jun-06 19:30N 22°28' E 120°18'0 0.0
2017-Jun-06 19:00N 22°28' E 120°18'  
Track history (hours):
 
Tides and Currents Weather Stations Pressure Air Temp Water Temp Dewpoint Dewpoint Depression Visibility Wind Speed Wind Dir Waves Ship Positions

Astro Chloe

Last reported at 2017-Jun-16 18:52 UTC. Time now 2017-Jun-24 08:53 UTC.
Position N 02°00' E 102°12'.

Length 333 m; draft 11.1 m.

Type: Tanker. MMSI: 240839000.

Date/timePositionNaut miles runAvg speedWind from/ knotsBaromVisibWave heightAir tempDewpointWater temp
2017-Jun-16 18:52N 02°00' E 102°12'510.2
2017-Jun-16 18:26N 01°58' E 102°16'410.2
2017-Jun-16 18:00N 01°56' E 102°20'510.1
2017-Jun-16 17:29N 01°53' E 102°25'5 9.7
2017-Jun-16 17:00N 01°51' E 102°29'5 9.7
2017-Jun-16 16:29N 01°49' E 102°33'5 9.7
2017-Jun-16 16:00N 01°46' E 102°37'5 9.7
2017-Jun-16 15:29N 01°44' E 102°42'510.0
2017-Jun-16 14:59N 01°42' E 102°46'4210.9
2017-Jun-16 11:12N 01°18' E 103°20'210.5
2017-Jun-16 10:59N 01°16' E 103°22'510.2
2017-Jun-16 10:29N 01°14' E 103°26'5 9.9
2017-Jun-16 09:59N 01°13' E 103°31'510.3
2017-Jun-16 09:30N 01°12' E 103°36'4 9.0
2017-Jun-16 09:00N 01°11' E 103°40'3 6.7
2017-Jun-16 08:30N 01°09' E 103°43'5 9.4
2017-Jun-16 08:00N 01°10' E 103°48'511.0
2017-Jun-16 07:30N 01°13' E 103°53'510.3
2017-Jun-16 07:00N 01°15' E 103°57'3 4.3
2017-Jun-16 06:25N 01°17' E 103°56'0 0.0
2017-Jun-16 05:49N 01°17' E 103°56'0 0.1
2017-Jun-16 04:25N 01°17' E 103°56'0 0.1
2017-Jun-16 03:55N 01°17' E 103°56'0 0.0
2017-Jun-16 03:25N 01°17' E 103°56'0 0.1
2017-Jun-16 02:40N 01°17' E 103°56'0 0.3
2017-Jun-16 02:28N 01°17' E 103°56'0 0.1
2017-Jun-16 01:58N 01°17' E 103°56'0 0.1
2017-Jun-16 01:19N 01°17' E 103°56'0 0.2
2017-Jun-16 00:58N 01°17' E 103°56'0 0.0
2017-Jun-16 00:25N 01°17' E 103°56'0 0.0
2017-Jun-15 23:58N 01°17' E 103°56'0 0.0
2017-Jun-15 23:28N 01°17' E 103°56'0 0.0
2017-Jun-15 23:01N 01°17' E 103°56'0 0.1
2017-Jun-15 22:28N 01°17' E 103°56'0 0.0
2017-Jun-15 21:58N 01°17' E 103°56'0 0.0
2017-Jun-15 21:28N 01°17' E 103°56'0 0.0
2017-Jun-15 20:52N 01°17' E 103°56'0 0.0
2017-Jun-15 20:01N 01°17' E 103°56'0 0.1
2017-Jun-15 19:55N 01°17' E 103°56'0 0.0
2017-Jun-15 19:25N 01°17' E 103°56'0 0.1
2017-Jun-15 18:58N 01°17' E 103°56'0 0.4
2017-Jun-15 18:28N 01°17' E 103°56'0 0.0
2017-Jun-15 08:24N 01°17' E 103°56'0 0.0
2017-Jun-15 07:57N 01°17' E 103°56'0 0.0
2017-Jun-15 07:30N 01°17' E 103°56'0 0.0
2017-Jun-15 06:48N 01°17' E 103°56'0 0.0
2017-Jun-15 06:24N 01°17' E 103°56'0 0.0
2017-Jun-15 05:52N 01°17' E 103°56'0 0.0
2017-Jun-15 05:27N 01°17' E 103°56'0 0.0
2017-Jun-15 05:00N 01°17' E 103°56'0 0.0
2017-Jun-15 04:30N 01°17' E 103°56'0 0.2
2017-Jun-15 04:00N 01°17' E 103°56'0 0.4
2017-Jun-15 03:30N 01°17' E 103°56'1 2.2
2017-Jun-15 03:00N 01°16' E 103°57'2 4.1
2017-Jun-15 02:30N 01°16' E 103°59'2 3.7
2017-Jun-15 02:00N 01°16' E 104°01'4 7.4
2017-Jun-15 01:30N 01°16' E 104°04'4 7.9
2017-Jun-15 01:00N 01°17' E 104°08'8 8.2
2017-Jun-15 00:01N 01°18' E 104°16'0 8.4
2017-Jun-14 23:58N 01°18' E 104°17'  
2017-Jun-08 14:26N 22°15' E 120°04'1111.5
2017-Jun-08 13:31N 22°24' E 120°11'510.9
2017-Jun-08 13:01N 22°28' E 120°15'3 5.5
2017-Jun-08 12:30N 22°28' E 120°18'0 0.4
2017-Jun-08 12:00N 22°28' E 120°18'0 0.1
2017-Jun-08 11:30N 22°28' E 120°18'0 0.1
2017-Jun-08 11:00N 22°28' E 120°18'0 0.1
2017-Jun-08 10:30N 22°28' E 120°18'0 0.0
2017-Jun-08 09:57N 22°28' E 120°18'0 0.0
2017-Jun-08 09:30N 22°28' E 120°18'0 0.2
2017-Jun-08 09:00N 22°28' E 120°18'0 0.2
2017-Jun-08 08:27N 22°28' E 120°17'0 0.1
2017-Jun-08 07:57N 22°28' E 120°17'0 0.1
2017-Jun-08 07:24N 22°28' E 120°17'0 0.2
2017-Jun-08 07:00N 22°28' E 120°17'0 0.0
2017-Jun-08 06:30N 22°28' E 120°17'0 0.0
2017-Jun-08 06:00N 22°28' E 120°17'0 0.0
2017-Jun-08 05:30N 22°28' E 120°17'0 0.0
2017-Jun-08 05:00N 22°28' E 120°17'0 0.0
2017-Jun-08 04:30N 22°28' E 120°17'0 0.1
2017-Jun-08 03:57N 22°28' E 120°17'0 0.0
2017-Jun-08 03:30N 22°28' E 120°17'0 0.0
2017-Jun-08 03:00N 22°28' E 120°17'0 0.0
2017-Jun-08 02:30N 22°28' E 120°17'0 0.0
2017-Jun-08 02:00N 22°28' E 120°17'0 0.0
2017-Jun-08 01:27N 22°28' E 120°17'0 0.1
2017-Jun-08 00:54N 22°28' E 120°17'0 0.1
2017-Jun-08 00:30N 22°28' E 120°17'0 0.1
2017-Jun-07 23:57N 22°28' E 120°17'0 0.2
2017-Jun-07 23:30N 22°28' E 120°17'0 0.1
2017-Jun-07 23:00N 22°28' E 120°18'0 0.0
2017-Jun-07 22:30N 22°28' E 120°18'0 0.1
2017-Jun-07 22:00N 22°28' E 120°18'0 0.0
2017-Jun-07 21:27N 22°28' E 120°18'0 0.3
2017-Jun-07 21:00N 22°28' E 120°18'0 0.2
2017-Jun-07 20:27N 22°28' E 120°17'0 0.1
2017-Jun-07 20:00N 22°28' E 120°17'0 0.1
2017-Jun-07 19:30N 22°28' E 120°17'0 0.1
2017-Jun-07 19:00N 22°28' E 120°17'0 0.1
2017-Jun-07 18:30N 22°28' E 120°17'0 0.0
2017-Jun-07 18:00N 22°28' E 120°17'0 0.1
2017-Jun-07 17:24N 22°28' E 120°17'0 0.2
2017-Jun-07 17:00N 22°28' E 120°18'0 0.2
2017-Jun-07 16:30N 22°28' E 120°18'0 0.1
2017-Jun-07 16:00N 22°28' E 120°18'0 0.2
2017-Jun-07 15:30N 22°28' E 120°18'0 0.1
2017-Jun-07 15:00N 22°28' E 120°18'0 0.0
2017-Jun-07 14:00N 22°28' E 120°18'0 0.1
2017-Jun-07 12:09N 22°28' E 120°18'0 0.1
2017-Jun-07 11:57N 22°28' E 120°18'0 0.0
2017-Jun-07 11:27N 22°28' E 120°18'0 0.0
2017-Jun-07 11:00N 22°28' E 120°18'0 0.0
2017-Jun-07 10:30N 22°28' E 120°18'0 0.1
2017-Jun-07 10:00N 22°28' E 120°18'0 0.0
2017-Jun-07 09:30N 22°28' E 120°18'0 0.1
2017-Jun-07 09:00N 22°28' E 120°18'0 0.0
2017-Jun-07 08:30N 22°28' E 120°18'0 0.2
2017-Jun-07 08:00N 22°28' E 120°18'0 0.2
2017-Jun-07 07:30N 22°28' E 120°18'0 0.2
2017-Jun-07 07:00N 22°28' E 120°17'0 0.1
2017-Jun-07 06:24N 22°28' E 120°17'0 0.1
2017-Jun-07 06:00N 22°28' E 120°17'0 0.0
2017-Jun-07 05:30N 22°28' E 120°17'0 0.0
2017-Jun-07 05:00N 22°28' E 120°17'0 0.1
2017-Jun-07 04:24N 22°28' E 120°17'0 0.0
2017-Jun-07 04:00N 22°28' E 120°17'0 0.0
2017-Jun-07 03:30N 22°28' E 120°17'0 0.0
2017-Jun-07 03:00N 22°28' E 120°17'0 0.0
2017-Jun-07 02:30N 22°28' E 120°17'0 0.0
2017-Jun-07 02:00N 22°28' E 120°17'0 0.1
2017-Jun-07 01:30N 22°28' E 120°17'0 0.0
2017-Jun-07 00:57N 22°28' E 120°17'0 0.0
2017-Jun-07 00:30N 22°28' E 120°17'0 0.3
2017-Jun-06 23:48N 22°28' E 120°18'0 0.3
2017-Jun-06 23:27N 22°28' E 120°18'0 0.1
2017-Jun-06 22:54N 22°28' E 120°18'0 0.0
2017-Jun-06 22:30N 22°28' E 120°18'0 0.0
2017-Jun-06 22:00N 22°28' E 120°18'0 0.1
2017-Jun-06 21:30N 22°28' E 120°18'0 0.0
2017-Jun-06 20:54N 22°28' E 120°18'0 0.0
2017-Jun-06 20:30N 22°28' E 120°18'0 0.0
2017-Jun-06 20:00N 22°28' E 120°18'0 0.0
2017-Jun-06 19:30N 22°28' E 120°18'0 0.0
2017-Jun-06 19:00N 22°28' E 120°18'  

Dump ship's entire track history